Time;durP1;ratioP1;P1;durP2;ratioP2;P2;SDS_P1;SDS_P2;PMS_P1;PMS_P2;Temp;Humidity;BMP_temperature;BMP_pressure;BME280_temperature;BME280_humidity;BME280_pressure;Samples;Min_cycle;Max_cycle;Signal;HPM_P1;HPM_P2
2021/10/05 00:02:24;;;;;;;4.07;1.70;;;16.30;99.90;;;;;;5018421;28;20262;-78
2021/10/05 00:04:52;;;;;;;3.47;1.92;;;16.40;99.90;;;;;;5019089;28;20223;-77
2021/10/05 00:07:19;;;;;;;373.67;14.55;;;16.40;99.90;;;;;;5018749;28;20752;-77
2021/10/05 00:09:46;;;;;;;278.00;10.15;;;16.40;99.90;;;;;;5019134;28;20788;-78
2021/10/05 00:12:15;;;;;;;378.98;14.63;;;16.30;99.90;;;;;;5021045;28;20243;-77
2021/10/05 00:14:42;;;;;;;497.23;18.10;;;16.20;99.90;;;;;;5023169;28;20281;-77
2021/10/05 00:17:09;;;;;;;774.55;27.70;;;16.10;99.90;;;;;;5023210;28;20224;-77
2021/10/05 00:19:37;;;;;;;63.80;4.68;;;16.10;99.90;;;;;;5011054;28;20278;-77
2021/10/05 00:22:06;;;;;;;184.50;8.85;;;16.00;99.90;;;;;;5021398;28;20293;-77
2021/10/05 00:24:33;;;;;;;515.22;18.45;;;16.00;99.90;;;;;;5024315;28;20273;-77
2021/10/05 00:27:00;;;;;;;49.03;4.20;;;16.00;99.90;;;;;;5020545;28;20277;-77
2021/10/05 00:29:29;;;;;;;149.98;8.10;;;15.90;99.90;;;;;;5016761;28;20318;-78
2021/10/05 00:31:56;;;;;;;39.50;4.55;;;15.90;99.90;;;;;;5004200;28;20281;-78
2021/10/05 00:34:23;;;;;;;13.05;2.35;;;15.90;99.90;;;;;;5012858;28;20235;-76
2021/10/05 00:36:50;;;;;;;3.13;1.63;;;16.00;99.90;;;;;;4999745;28;20220;-77
2021/10/05 00:39:17;;;;;;;2.45;1.42;;;16.00;99.90;;;;;;5004092;28;21471;-77
2021/10/05 00:41:44;;;;;;;1.58;1.48;;;16.10;99.90;;;;;;5022645;28;20231;-77
2021/10/05 00:44:11;;;;;;;1.60;1.25;;;16.10;99.90;;;;;;5021537;28;20269;-76
2021/10/05 00:46:39;;;;;;;1.48;1.38;;;16.20;99.90;;;;;;5020251;28;20227;-78
2021/10/05 00:49:06;;;;;;;23.77;2.20;;;16.20;99.90;;;;;;5008517;28;20224;-77
2021/10/05 00:51:33;;;;;;;41.28;2.55;;;16.10;99.90;;;;;;5020998;28;20223;-78
2021/10/05 00:54:00;;;;;;;18.45;2.78;;;16.20;99.90;;;;;;5018509;28;20216;-78
2021/10/05 00:56:27;;;;;;;301.08;12.13;;;16.20;99.90;;;;;;5019297;28;20223;-78
2021/10/05 00:58:54;;;;;;;2.47;2.00;;;16.20;99.90;;;;;;5019080;28;20230;-78
2021/10/05 01:01:21;;;;;;;2.30;2.20;;;16.20;99.90;;;;;;5022099;28;20223;-77
2021/10/05 01:03:50;;;;;;;2.35;2.15;;;16.20;99.90;;;;;;5019815;28;20224;-77
2021/10/05 01:06:17;;;;;;;2.50;2.30;;;16.20;99.90;;;;;;5020978;28;20227;-79
2021/10/05 01:08:46;;;;;;;2.22;2.13;;;16.30;99.90;;;;;;5022214;28;20330;-77
2021/10/05 01:11:13;;;;;;;2.50;2.30;;;16.40;99.90;;;;;;5022828;28;20223;-77
2021/10/05 01:13:40;;;;;;;2.00;1.90;;;16.40;99.90;;;;;;5027501;28;20227;-77
2021/10/05 01:16:07;;;;;;;2.70;2.53;;;16.50;99.90;;;;;;5023171;28;20223;-77
2021/10/05 01:18:34;;;;;;;2.17;2.08;;;16.50;99.90;;;;;;5027006;28;20231;-76
2021/10/05 01:21:05;;;;;;;2.33;2.22;;;16.50;99.90;;;;;;5023349;28;20320;-77
2021/10/05 01:23:34;;;;;;;2.90;2.70;;;16.60;99.90;;;;;;5023836;28;20234;-77
2021/10/05 01:26:02;;;;;;;2.40;2.30;;;16.60;99.90;;;;;;5022737;28;20216;-77
2021/10/05 01:28:29;;;;;;;2.53;2.33;;;16.60;99.90;;;;;;5021654;28;20306;-78
2021/10/05 01:30:56;;;;;;;2.40;2.28;;;16.60;99.90;;;;;;5023210;28;20215;-78
2021/10/05 01:33:26;;;;;;;2.70;2.50;;;16.60;99.90;;;;;;5024933;28;20258;-77
2021/10/05 01:35:53;;;;;;;2.83;2.63;;;16.60;99.90;;;;;;5027621;28;21054;-77
2021/10/05 01:38:22;;;;;;;2.72;2.53;;;16.60;99.90;;;;;;5024427;28;20238;-77
2021/10/05 01:40:49;;;;;;;2.90;2.70;;;16.60;99.90;;;;;;5022566;28;20234;-78
2021/10/05 01:43:17;;;;;;;2.70;2.50;;;16.60;99.90;;;;;;5025810;28;20227;-77
2021/10/05 01:45:44;;;;;;;8.02;3.17;;;16.60;99.90;;;;;;5019407;28;20303;-78
2021/10/05 01:48:11;;;;;;;3.22;3.03;;;16.50;99.90;;;;;;5022755;28;20235;-77
2021/10/05 01:50:38;;;;;;;3.10;2.90;;;16.50;99.90;;;;;;5023092;28;20228;-77
2021/10/05 01:53:06;;;;;;;3.25;3.05;;;16.50;99.90;;;;;;5024480;28;20219;-77
2021/10/05 01:55:34;;;;;;;3.13;2.90;;;16.50;99.90;;;;;;5019328;28;20228;-77
2021/10/05 01:58:01;;;;;;;43.42;3.92;;;16.50;99.90;;;;;;5025153;28;20231;-77
2021/10/05 02:00:29;;;;;;;5.47;2.65;;;16.50;99.90;;;;;;5024525;28;20232;-77
2021/10/05 02:02:56;;;;;;;2.60;2.40;;;16.50;99.90;;;;;;5024277;28;20627;-77
2021/10/05 02:05:23;;;;;;;3.50;2.63;;;16.40;99.90;;;;;;5022575;28;20278;-77
2021/10/05 02:07:50;;;;;;;2.80;2.60;;;16.40;99.90;;;;;;5022398;28;20564;-77
2021/10/05 02:10:17;;;;;;;2.75;2.55;;;16.30;99.90;;;;;;5020044;28;20227;-77
2021/10/05 02:12:46;;;;;;;2.00;1.90;;;16.40;99.90;;;;;;5021461;28;20641;-76
2021/10/05 02:15:13;;;;;;;3.28;2.35;;;16.40;99.90;;;;;;5024323;28;20278;-77
2021/10/05 02:17:40;;;;;;;2.75;2.55;;;16.40;99.90;;;;;;5023765;28;20370;-77
2021/10/05 02:20:08;;;;;;;2.72;2.53;;;16.50;99.90;;;;;;5021479;28;20659;-77
2021/10/05 02:22:36;;;;;;;5.22;3.42;;;16.50;99.90;;;;;;5023482;28;20652;-77
2021/10/05 02:25:05;;;;;;;2.40;2.30;;;16.50;99.90;;;;;;5019638;28;20315;-77
2021/10/05 02:27:32;;;;;;;2.97;2.50;;;16.50;99.90;;;;;;5024100;28;20235;-77
2021/10/05 02:30:01;;;;;;;2.72;2.53;;;16.50;99.90;;;;;;5022327;28;20231;-78
2021/10/05 02:32:28;;;;;;;2.60;2.50;;;16.50;99.90;;;;;;5021716;28;20227;-77
2021/10/05 02:34:56;;;;;;;2.50;2.40;;;16.50;99.90;;;;;;5019100;28;20231;-78
2021/10/05 02:37:23;;;;;;;14.35;2.55;;;16.50;99.90;;;;;;5023749;28;20274;-77
2021/10/05 02:39:50;;;;;;;14.65;3.03;;;16.50;99.90;;;;;;5019842;28;20227;-77
2021/10/05 02:42:17;;;;;;;7.07;2.25;;;16.40;99.90;;;;;;5023649;28;20230;-77
2021/10/05 02:44:44;;;;;;;2.45;2.25;;;16.40;99.90;;;;;;5020886;28;20281;-77
2021/10/05 02:47:13;;;;;;;63.75;4.35;;;16.30;99.90;;;;;;5020588;28;20293;-77
2021/10/05 02:49:44;;;;;;;5.70;2.92;;;16.30;99.90;;;;;;5019380;28;20231;-77
2021/10/05 02:52:12;;;;;;;2.90;2.70;;;16.20;99.90;;;;;;5022801;28;20219;-77
2021/10/05 02:54:40;;;;;;;2.33;2.20;;;16.20;99.90;;;;;;5019675;28;20227;-78
2021/10/05 02:57:07;;;;;;;2.80;2.60;;;16.20;99.90;;;;;;5022081;28;20230;-76
2021/10/05 02:59:34;;;;;;;6.82;2.95;;;16.20;99.90;;;;;;5062273;22;20234;-76
2021/10/05 03:02:01;;;;;;;3.75;3.45;;;16.20;99.90;;;;;;5067318;28;20229;-76
2021/10/05 03:04:29;;;;;;;3.55;3.35;;;16.20;99.90;;;;;;5070468;28;20276;-76
2021/10/05 03:06:56;;;;;;;3.08;2.88;;;16.20;99.90;;;;;;5073094;28;20226;-75
2021/10/05 03:09:23;;;;;;;3.03;2.83;;;16.30;99.90;;;;;;5072897;28;20218;-77
2021/10/05 03:11:50;;;;;;;2.58;2.45;;;16.30;99.90;;;;;;5059277;28;20230;-78
2021/10/05 03:14:18;;;;;;;3.15;2.95;;;16.40;99.90;;;;;;5066468;28;20630;-77
2021/10/05 03:16:45;;;;;;;3.55;3.25;;;16.40;99.90;;;;;;5070107;28;20720;-79
2021/10/05 03:19:12;;;;;;;2.95;2.75;;;16.40;99.90;;;;;;5070953;28;20677;-77
2021/10/05 03:21:41;;;;;;;2.53;2.38;;;16.40;99.90;;;;;;5070215;28;20281;-77
2021/10/05 03:24:09;;;;;;;2.65;2.45;;;16.40;99.90;;;;;;5070136;28;20252;-77
2021/10/05 03:26:36;;;;;;;3.35;3.15;;;16.40;99.90;;;;;;5047684;28;20228;-78
2021/10/05 03:29:04;;;;;;;2.80;2.60;;;16.30;99.90;;;;;;5085014;28;20282;-78
2021/10/05 03:31:31;;;;;;;2.42;2.33;;;16.40;99.90;;;;;;5090969;28;20642;-76
2021/10/05 03:33:58;;;;;;;3.13;2.92;;;16.40;99.90;;;;;;5084786;28;20266;-75
2021/10/05 03:36:25;;;;;;;2.40;2.30;;;16.40;99.90;;;;;;5093523;28;20647;-76
2021/10/05 03:38:54;;;;;;;3.35;3.10;;;16.40;99.90;;;;;;5084559;28;20286;-74
2021/10/05 03:41:23;;;;;;;3.60;3.30;;;16.40;99.90;;;;;;5085468;28;20644;-75
2021/10/05 03:43:50;;;;;;;3.13;2.92;;;16.40;99.90;;;;;;5094450;28;20224;-75
2021/10/05 03:46:17;;;;;;;4.40;4.10;;;16.40;99.90;;;;;;5093106;28;20219;-75
2021/10/05 03:48:44;;;;;;;4.22;3.92;;;16.40;99.90;;;;;;5093052;28;20280;-75
2021/10/05 03:51:11;;;;;;;4.78;4.38;;;16.30;99.90;;;;;;5091636;28;20734;-76
2021/10/05 03:53:38;;;;;;;4.57;4.28;;;16.30;99.90;;;;;;5089912;28;20217;-75
2021/10/05 03:56:07;;;;;;;4.57;4.20;;;16.30;99.90;;;;;;5094509;28;20699;-76
2021/10/05 03:58:34;;;;;;;4.97;4.50;;;16.30;99.90;;;;;;5080959;28;20241;-77
2021/10/05 04:01:03;;;;;;;4.28;3.97;;;16.30;99.90;;;;;;5070619;28;20245;-75
2021/10/05 04:03:31;;;;;;;3.92;3.63;;;16.30;99.90;;;;;;5070636;28;20241;-76
2021/10/05 04:05:58;;;;;;;4.00;3.70;;;16.30;99.90;;;;;;5065369;28;21790;-77
2021/10/05 04:08:25;;;;;;;3.90;3.63;;;16.30;99.90;;;;;;5062332;28;20218;-75
2021/10/05 04:10:52;;;;;;;3.60;3.35;;;16.30;99.90;;;;;;5064373;28;20221;-76
2021/10/05 04:13:21;;;;;;;3.65;3.40;;;16.40;99.90;;;;;;5072075;28;20589;-76
2021/10/05 04:15:48;;;;;;;4.53;4.22;;;16.40;99.90;;;;;;5080090;28;20300;-75
2021/10/05 04:18:15;;;;;;;3.83;3.55;;;16.30;99.90;;;;;;5091031;28;20221;-75
2021/10/05 04:20:42;;;;;;;4.03;3.55;;;16.40;99.90;;;;;;5083082;28;20229;-76
2021/10/05 04:23:09;;;;;;;3.83;3.53;;;16.40;99.90;;;;;;5091117;28;20695;-75
2021/10/05 04:25:36;;;;;;;3.38;3.17;;;16.40;99.90;;;;;;5092077;28;20225;-74
2021/10/05 04:28:03;;;;;;;3.92;3.63;;;16.40;99.90;;;;;;5098697;28;20571;-79
2021/10/05 04:30:32;;;;;;;3.30;3.10;;;16.40;99.90;;;;;;5084658;28;20228;-76
2021/10/05 04:32:59;;;;;;;3.55;3.28;;;16.40;99.90;;;;;;5083654;28;20217;-76
2021/10/05 04:35:26;;;;;;;3.22;2.97;;;16.40;99.90;;;;;;5068683;28;20229;-76
2021/10/05 04:37:54;;;;;;;2.90;2.70;;;16.40;99.90;;;;;;5081929;28;20641;-78
2021/10/05 04:40:21;;;;;;;3.42;3.13;;;16.40;99.90;;;;;;5082397;28;21262;-75
2021/10/05 04:42:48;;;;;;;4.00;3.78;;;16.40;99.90;;;;;;5054664;28;20642;-75
2021/10/05 04:45:15;;;;;;;3.55;3.35;;;16.40;99.90;;;;;;5062133;28;20225;-75
2021/10/05 04:47:43;;;;;;;3.75;3.55;;;16.30;99.90;;;;;;5063102;28;20318;-75
2021/10/05 04:50:12;;;;;;;2.65;2.45;;;16.30;99.90;;;;;;5082610;28;20680;-76
2021/10/05 04:52:39;;;;;;;2.80;2.65;;;16.20;99.90;;;;;;5088012;28;20224;-76
2021/10/05 04:55:06;;;;;;;2.40;2.30;;;16.20;99.90;;;;;;5047616;28;20237;-75
2021/10/05 04:57:34;;;;;;;2.53;2.33;;;16.20;99.90;;;;;;5074537;28;20274;-75
2021/10/05 05:00:01;;;;;;;2.47;2.38;;;16.20;99.90;;;;;;5060567;28;20670;-77
2021/10/05 05:02:28;;;;;;;2.40;2.28;;;16.20;99.90;;;;;;5063268;28;20276;-76
2021/10/05 05:04:57;;;;;;;2.30;2.20;;;16.20;99.90;;;;;;5060836;28;20223;-75
2021/10/05 05:07:24;;;;;;;2.97;2.78;;;16.30;99.90;;;;;;5068814;28;20304;-75
2021/10/05 05:09:51;;;;;;;3.22;3.03;;;16.20;99.90;;;;;;5062910;28;20225;-75
2021/10/05 05:12:18;;;;;;;3.35;3.05;;;16.10;99.90;;;;;;5066475;28;20312;-76
2021/10/05 05:14:45;;;;;;;3.00;2.78;;;16.10;99.90;;;;;;5059058;28;20225;-76
2021/10/05 05:17:12;;;;;;;2.88;2.67;;;16.10;99.90;;;;;;5060911;28;20905;-75
2021/10/05 05:19:39;;;;;;;2.80;2.60;;;16.10;99.90;;;;;;5060472;28;20306;-75
2021/10/05 05:22:07;;;;;;;2.83;2.63;;;16.10;99.90;;;;;;5024751;28;20238;-77
2021/10/05 05:24:34;;;;;;;3.33;3.10;;;16.10;99.90;;;;;;5069999;28;20745;-76
2021/10/05 05:27:01;;;;;;;3.20;3.00;;;16.20;99.90;;;;;;5066043;28;20288;-77
2021/10/05 05:29:28;;;;;;;3.95;2.92;;;16.20;99.90;;;;;;5072018;28;20225;-76
2021/10/05 05:31:58;;;;;;;2.75;2.63;;;16.30;99.90;;;;;;5053972;28;20524;-77
2021/10/05 05:34:25;;;;;;;2.90;2.70;;;16.20;99.90;;;;;;5059530;28;20229;-78
2021/10/05 05:36:52;;;;;;;2.90;2.70;;;16.20;99.90;;;;;;5061488;28;20504;-77
2021/10/05 05:39:20;;;;;;;2.30;2.20;;;16.20;99.90;;;;;;5056379;28;20276;-76
2021/10/05 05:41:50;;;;;;;3.03;2.72;;;16.30;99.90;;;;;;5054983;28;20226;-78
2021/10/05 05:44:17;;;;;;;3.00;2.80;;;16.30;99.90;;;;;;5059429;28;20260;-77
2021/10/05 05:46:44;;;;;;;3.17;2.97;;;16.30;99.90;;;;;;5064816;28;20222;-76
2021/10/05 05:49:11;;;;;;;2.90;2.70;;;16.20;99.90;;;;;;5058771;28;20242;-76
2021/10/05 05:51:39;;;;;;;3.22;3.00;;;16.20;99.90;;;;;;5064611;28;20218;-77
2021/10/05 05:54:06;;;;;;;2.75;2.55;;;16.20;99.90;;;;;;5062353;28;20278;-78
2021/10/05 05:56:35;;;;;;;2.75;2.55;;;16.20;99.90;;;;;;5065230;28;20218;-79
2021/10/05 05:59:03;;;;;;;2.88;2.67;;;16.20;99.90;;;;;;5067547;28;20253;-77
2021/10/05 06:01:30;;;;;;;2.42;2.33;;;16.30;99.90;;;;;;5064538;28;20222;-77
2021/10/05 06:03:57;;;;;;;2.55;2.42;;;16.30;99.90;;;;;;5063864;28;20218;-78
2021/10/05 06:06:24;;;;;;;2.80;2.60;;;16.30;99.90;;;;;;5069603;28;20232;-77
2021/10/05 06:08:51;;;;;;;2.60;2.45;;;16.30;99.90;;;;;;5061355;28;20234;-76
2021/10/05 06:11:21;;;;;;;2.60;2.50;;;16.30;99.90;;;;;;5056048;28;20229;-81
2021/10/05 06:13:50;;;;;;;3.67;2.97;;;16.30;99.90;;;;;;5050059;28;20248;-79
2021/10/05 06:16:17;;;;;;;3.42;3.13;;;16.30;99.90;;;;;;5051021;28;20635;-78
2021/10/05 06:18:44;;;;;;;3.63;3.33;;;16.20;99.90;;;;;;5053910;28;20652;-75
2021/10/05 06:21:12;;;;;;;3.03;2.83;;;16.30;99.90;;;;;;5052910;28;20229;-79
2021/10/05 06:23:39;;;;;;;3.33;3.03;;;16.30;99.90;;;;;;5057133;28;20226;-78
2021/10/05 06:26:06;;;;;;;4.60;4.22;;;16.30;99.90;;;;;;5048729;28;20206;-78
2021/10/05 06:28:34;;;;;;;3.75;3.45;;;16.20;99.90;;;;;;5054787;28;20218;-78
2021/10/05 06:31:03;;;;;;;3.65;3.35;;;16.10;99.90;;;;;;5055511;28;20485;-80
2021/10/05 06:33:30;;;;;;;3.20;3.00;;;16.10;99.90;;;;;;5055815;28;20298;-78
2021/10/05 06:35:57;;;;;;;3.28;3.08;;;16.10;99.90;;;;;;5055151;28;20217;-78
2021/10/05 06:38:24;;;;;;;2.45;2.28;;;16.20;99.90;;;;;;5054131;28;20681;-76
2021/10/05 06:40:52;;;;;;;1.67;1.58;;;16.10;99.90;;;;;;5044301;28;20256;-79
2021/10/05 06:43:20;;;;;;;2.13;2.03;;;16.10;99.90;;;;;;5055692;28;20280;-78
2021/10/05 06:45:47;;;;;;;2.30;2.20;;;16.10;99.90;;;;;;5055284;28;20364;-79
2021/10/05 06:48:18;;;;;;;2.63;2.42;;;16.10;99.90;;;;;;5052437;28;20226;-79
2021/10/05 06:50:45;;;;;;;1.77;1.67;;;16.10;99.90;;;;;;5056389;28;20751;-76
2021/10/05 06:53:16;;;;;;;2.72;2.53;;;16.10;99.90;;;;;;5054958;28;20234;-78
2021/10/05 06:55:43;;;;;;;1.90;1.70;;;16.10;99.90;;;;;;5057720;28;20248;-75
2021/10/05 06:58:10;;;;;;;1.80;1.70;;;16.10;99.90;;;;;;5057556;28;20217;-77
2021/10/05 07:00:37;;;;;;;1.92;1.83;;;16.10;99.90;;;;;;5054745;28;20230;-76
2021/10/05 07:03:04;;;;;;;3.20;1.92;;;16.10;99.90;;;;;;5050597;28;20786;-78
2021/10/05 07:05:33;;;;;;;2.28;2.08;;;16.00;99.90;;;;;;5050106;28;20234;-78
2021/10/05 07:08:00;;;;;;;2.50;1.80;;;15.80;99.90;;;;;;5051987;28;20653;-76
2021/10/05 07:10:27;;;;;;;2.38;2.17;;;15.80;99.90;;;;;;5055510;28;20291;-75
2021/10/05 07:12:54;;;;;;;2.13;1.90;;;15.80;99.90;;;;;;5072733;28;20262;-76
2021/10/05 07:15:21;;;;;;;2.05;1.95;;;15.80;99.90;;;;;;5073699;28;20236;-79
2021/10/05 07:17:53;;;;;;;2.80;2.13;;;15.80;99.90;;;;;;5077045;28;20664;-75
2021/10/05 07:20:21;;;;;;;2.00;1.88;;;15.80;99.90;;;;;;5072255;28;20727;-74
2021/10/05 07:22:50;;;;;;;1.77;1.67;;;15.90;99.90;;;;;;5060203;28;20323;-76
2021/10/05 07:25:18;;;;;;;2.67;2.47;;;15.90;99.90;;;;;;5055796;28;20227;-76
2021/10/05 07:27:50;;;;;;;2.67;2.47;;;15.90;99.90;;;;;;5073182;28;20236;-77
2021/10/05 07:30:18;;;;;;;2.72;2.13;;;15.90;99.90;;;;;;5063884;28;20232;-75
2021/10/05 07:32:45;;;;;;;2.13;1.98;;;16.00;99.90;;;;;;5052523;28;20245;-76
2021/10/05 07:35:12;;;;;;;2.03;1.73;;;16.00;99.90;;;;;;5048833;28;20646;-76
2021/10/05 07:37:39;;;;;;;2.40;2.25;;;16.20;99.90;;;;;;5073345;28;20591;-76
2021/10/05 07:40:08;;;;;;;2.35;2.15;;;16.40;99.90;;;;;;5059661;28;20711;-75
2021/10/05 07:42:35;;;;;;;2.55;2.35;;;16.50;99.90;;;;;;5048409;28;20657;-78
2021/10/05 07:45:03;;;;;;;2.10;2.00;;;16.50;99.90;;;;;;5053602;28;20234;-76
2021/10/05 07:47:30;;;;;;;3.15;2.05;;;16.50;99.90;;;;;;5052837;28;20271;-76
2021/10/05 07:49:57;;;;;;;2.10;1.83;;;16.60;99.90;;;;;;5051406;28;20244;-75
2021/10/05 07:52:24;;;;;;;2.10;1.90;;;16.80;99.90;;;;;;5054412;28;20268;-74
2021/10/05 07:54:51;;;;;;;2.65;2.45;;;16.90;99.90;;;;;;5074017;28;20735;-75
2021/10/05 07:57:19;;;;;;;2.70;2.50;;;16.90;99.90;;;;;;5080061;28;20214;-74
2021/10/05 07:59:48;;;;;;;3.35;2.85;;;16.80;99.90;;;;;;5049800;28;20418;-76
2021/10/05 08:02:15;;;;;;;2.25;2.10;;;16.70;99.90;;;;;;5056071;28;20225;-76
2021/10/05 08:04:42;;;;;;;2.80;2.60;;;16.60;99.90;;;;;;5079699;28;20287;-77
2021/10/05 08:07:09;;;;;;;2.90;2.65;;;16.60;99.90;;;;;;5079321;28;20224;-77
2021/10/05 08:09:36;;;;;;;2.67;2.47;;;16.60;99.90;;;;;;5060259;28;20242;-75
2021/10/05 08:12:04;;;;;;;2.50;2.30;;;16.60;99.90;;;;;;5057484;28;20366;-74
2021/10/05 08:14:32;;;;;;;2.92;2.72;;;16.70;99.90;;;;;;5078842;28;20616;-75
2021/10/05 08:17:00;;;;;;;2.70;2.50;;;16.80;99.90;;;;;;5083592;28;20224;-77
2021/10/05 08:19:27;;;;;;;1.95;1.85;;;16.90;99.90;;;;;;5075206;28;20363;-76
2021/10/05 08:21:54;;;;;;;2.40;2.05;;;17.10;99.90;;;;;;5082950;28;20242;-76
2021/10/05 08:24:22;;;;;;;3.20;2.10;;;17.30;99.90;;;;;;5077755;28;20232;-76
2021/10/05 08:26:49;;;;;;;2.30;1.95;;;17.30;99.90;;;;;;5088832;28;20466;-75
2021/10/05 08:29:18;;;;;;;3.00;2.70;;;17.30;99.90;;;;;;5058568;28;20236;-75
2021/10/05 08:31:47;;;;;;;2.38;2.17;;;17.20;99.90;;;;;;5047899;28;20225;-76
2021/10/05 08:34:14;;;;;;;2.60;2.28;;;17.20;99.90;;;;;;5049092;28;20218;-75
2021/10/05 08:36:41;;;;;;;2.35;2.15;;;17.10;99.90;;;;;;5053717;28;20229;-76
2021/10/05 08:39:10;;;;;;;2.10;2.00;;;17.20;99.90;;;;;;5054629;28;20295;-74
2021/10/05 08:41:39;;;;;;;2.28;2.08;;;17.30;99.90;;;;;;5051367;28;20226;-75
2021/10/05 08:44:06;;;;;;;2.92;2.28;;;17.50;99.90;;;;;;5076795;28;20221;-76
2021/10/05 08:46:37;;;;;;;2.65;2.45;;;17.60;99.90;;;;;;5075709;28;20279;-76
2021/10/05 08:49:05;;;;;;;2.20;2.00;;;17.70;99.90;;;;;;5073495;28;20253;-79
2021/10/05 08:51:33;;;;;;;2.28;2.08;;;17.90;99.90;;;;;;5070682;28;20233;-75
2021/10/05 08:54:00;;;;;;;2.30;2.10;;;18.00;99.90;;;;;;5079312;28;20723;-75
2021/10/05 08:56:27;;;;;;;2.00;1.90;;;18.00;99.90;;;;;;5071342;28;20537;-74
2021/10/05 08:58:54;;;;;;;2.35;2.03;;;18.10;99.90;;;;;;5072761;28;20616;-75
2021/10/05 09:01:21;;;;;;;2.00;1.90;;;18.10;99.90;;;;;;5004255;22;20238;-77
2021/10/05 09:03:49;;;;;;;4.15;2.70;;;18.10;99.90;;;;;;5041745;28;20420;-76
2021/10/05 09:06:20;;;;;;;4.55;2.97;;;18.10;99.90;;;;;;5041414;28;20318;-76
2021/10/05 09:08:49;;;;;;;4.78;2.50;;;18.10;99.90;;;;;;5049672;28;20229;-76
2021/10/05 09:11:18;;;;;;;2.22;2.03;;;18.20;99.90;;;;;;5046493;28;20269;-77
2021/10/05 09:13:47;;;;;;;4.40;2.30;;;18.20;99.90;;;;;;5050158;28;20229;-77
2021/10/05 09:16:22;;;;;;;2.30;2.10;;;18.30;99.90;;;;;;5047190;28;20299;-77
2021/10/05 09:18:57;;;;;;;2.60;1.90;;;18.40;99.90;;;;;;5044037;28;20217;-76
2021/10/05 09:21:27;;;;;;;3.90;2.20;;;18.40;99.90;;;;;;5049716;28;20663;-74
2021/10/05 09:23:57;;;;;;;2.63;2.30;;;18.30;99.90;;;;;;5049770;28;20279;-76
2021/10/05 09:26:35;;;;;;;3.08;2.13;;;18.30;99.90;;;;;;5049513;28;20218;-77
2021/10/05 09:29:10;;;;;;;3.35;2.30;;;18.20;99.90;;;;;;5047414;28;20707;-77
2021/10/05 09:31:55;;;;;;;3.47;2.42;;;18.20;99.90;;;;;;5053473;28;20224;-76
2021/10/05 09:34:33;;;;;;;3.47;2.60;;;18.20;99.90;;;;;;5052868;28;20218;-76
2021/10/05 09:37:07;;;;;;;2.67;2.47;;;18.20;99.90;;;;;;5051799;28;20620;-77
2021/10/05 09:39:44;;;;;;;2.88;2.30;;;18.20;99.90;;;;;;5049929;28;20237;-77
2021/10/05 09:42:11;;;;;;;2.30;2.10;;;18.20;99.90;;;;;;5051797;28;20752;-76
2021/10/05 09:44:38;;;;;;;3.15;2.20;;;18.30;99.90;;;;;;5050976;28;20287;-77
2021/10/05 09:47:06;;;;;;;2.42;2.05;;;18.40;99.90;;;;;;5034744;28;20222;-76
2021/10/05 09:49:43;;;;;;;2.60;2.25;;;18.50;99.90;;;;;;5045251;28;20604;-77
2021/10/05 09:52:12;;;;;;;3.05;2.55;;;18.60;99.90;;;;;;5049948;28;21683;-77
2021/10/05 09:54:41;;;;;;;3.60;2.38;;;18.70;99.90;;;;;;5049484;28;20869;-76
2021/10/05 09:57:08;;;;;;;2.35;2.03;;;18.90;99.90;;;;;;5052861;28;20598;-76
2021/10/05 09:59:35;;;;;;;2.30;2.10;;;19.20;99.90;;;;;;5048749;28;20226;-75
2021/10/05 10:02:04;;;;;;;3.15;1.88;;;19.30;99.90;;;;;;5042838;28;22050;-76
2021/10/05 10:04:33;;;;;;;2.75;1.92;;;19.50;99.90;;;;;;5047610;28;20679;-76
2021/10/05 10:07:01;;;;;;;2.33;1.90;;;19.40;99.90;;;;;;5048375;28;20238;-76
2021/10/05 10:09:32;;;;;;;2.90;1.83;;;19.30;99.90;;;;;;5049800;28;20707;-78
2021/10/05 10:12:02;;;;;;;2.35;2.05;;;19.10;99.90;;;;;;5046907;28;20494;-77
2021/10/05 10:14:30;;;;;;;2.25;1.90;;;19.00;99.90;;;;;;5049552;28;20222;-78
2021/10/05 10:16:57;;;;;;;2.90;2.25;;;19.00;99.90;;;;;;5046879;28;20218;-76
2021/10/05 10:19:32;;;;;;;2.45;2.10;;;19.00;99.90;;;;;;5050833;28;20218;-77
2021/10/05 10:22:11;;;;;;;2.30;2.10;;;19.10;99.90;;;;;;5045920;28;20233;-76
2021/10/05 10:24:51;;;;;;;3.28;2.20;;;19.20;99.90;;;;;;5046323;28;20221;-77
2021/10/05 10:27:18;;;;;;;2.20;2.08;;;19.70;99.90;;;;;;5044581;28;20218;-76
2021/10/05 10:29:46;;;;;;;2.72;2.22;;;20.50;99.90;;;;;;5050106;28;20221;-78
2021/10/05 10:32:17;;;;;;;2.17;1.80;;;21.20;99.90;;;;;;5046616;28;20327;-75
2021/10/05 10:34:46;;;;;;;2.45;2.10;;;21.60;99.90;;;;;;5052415;28;20234;-77
2021/10/05 10:37:16;;;;;;;3.30;1.77;;;21.80;99.90;;;;;;5047553;28;20218;-77
2021/10/05 10:39:44;;;;;;;1.83;1.58;;;21.90;99.90;;;;;;5045327;28;20229;-77
2021/10/05 10:42:17;;;;;;;1.80;1.70;;;21.90;99.90;;;;;;5051841;28;20226;-77
2021/10/05 10:44:44;;;;;;;2.42;2.10;;;21.90;99.90;;;;;;5046759;28;21683;-76
2021/10/05 10:47:15;;;;;;;2.63;1.75;;;21.40;99.90;;;;;;5049908;28;21973;-76
2021/10/05 10:49:54;;;;;;;3.10;2.10;;;20.80;99.90;;;;;;5046631;28;20314;-77
2021/10/05 10:52:24;;;;;;;2.35;2.15;;;20.60;99.90;;;;;;5046147;28;20230;-78
2021/10/05 10:54:55;;;;;;;3.05;2.20;;;20.30;99.90;;;;;;5041567;28;20587;-78
2021/10/05 10:57:35;;;;;;;3.03;2.13;;;19.90;99.90;;;;;;5041011;28;20299;-77
2021/10/05 11:00:20;;;;;;;2.42;2.10;;;19.50;99.90;;;;;;5045633;28;20237;-76
2021/10/05 11:02:49;;;;;;;3.20;1.77;;;19.20;99.90;;;;;;5050883;28;20335;-78
2021/10/05 11:05:20;;;;;;;3.08;1.70;;;19.10;99.90;;;;;;5049646;28;20218;-78
2021/10/05 11:07:48;;;;;;;2.00;1.80;;;19.00;99.90;;;;;;5044499;28;20839;-77
2021/10/05 11:10:17;;;;;;;1.98;1.50;;;18.90;99.90;;;;;;5043613;28;20592;-77
2021/10/05 11:12:53;;;;;;;1.58;1.33;;;18.90;99.90;;;;;;5049675;28;20603;-78
2021/10/05 11:15:34;;;;;;;2.03;1.58;;;18.80;99.90;;;;;;5049888;28;20218;-76
2021/10/05 11:18:06;;;;;;;2.13;1.50;;;18.70;99.90;;;;;;5051775;28;20270;-75
2021/10/05 11:20:36;;;;;;;3.22;1.85;;;18.40;99.90;;;;;;5049832;28;20226;-75
2021/10/05 11:23:03;;;;;;;2.65;1.80;;;18.20;99.90;;;;;;5049344;28;20233;-77
2021/10/05 11:25:31;;;;;;;2.30;1.55;;;18.10;99.90;;;;;;5021990;28;20230;-77
2021/10/05 11:28:10;;;;;;;2.03;1.30;;;18.20;99.90;;;;;;5040431;28;20219;-77
2021/10/05 11:30:54;;;;;;;2.30;1.45;;;18.10;99.90;;;;;;5051564;28;20218;-76
2021/10/05 11:33:24;;;;;;;2.70;1.60;;;18.00;99.90;;;;;;5044713;28;20231;-75
2021/10/05 11:35:51;;;;;;;2.97;1.50;;;17.90;99.90;;;;;;5050397;28;20584;-77
2021/10/05 11:38:19;;;;;;;1.70;1.40;;;17.90;99.90;;;;;;5047242;28;20221;-77
2021/10/05 11:40:57;;;;;;;2.70;1.92;;;17.80;99.90;;;;;;5051808;28;20635;-78
2021/10/05 11:43:37;;;;;;;2.05;1.58;;;17.70;99.90;;;;;;5048251;28;20218;-77
2021/10/05 11:46:14;;;;;;;2.95;1.98;;;17.60;99.90;;;;;;5048845;28;20924;-78
2021/10/05 11:48:42;;;;;;;4.00;1.70;;;17.50;99.90;;;;;;5049153;28;20309;-76
2021/10/05 11:51:09;;;;;;;3.28;1.65;;;17.40;99.90;;;;;;5054018;28;20229;-78
2021/10/05 11:53:38;;;;;;;3.53;1.73;;;17.40;99.90;;;;;;5048865;28;20226;-76
2021/10/05 11:56:07;;;;;;;2.13;1.60;;;17.50;99.90;;;;;;5051123;28;20248;-77
2021/10/05 11:58:50;;;;;;;3.78;1.50;;;17.50;99.90;;;;;;5043799;28;20225;-76
2021/10/05 12:01:22;;;;;;;1.60;1.50;;;17.70;99.90;;;;;;5047833;28;20678;-75
2021/10/05 12:03:51;;;;;;;1.83;1.55;;;17.70;99.90;;;;;;5042396;28;20707;-75
2021/10/05 12:06:27;;;;;;;1.92;1.42;;;17.70;99.90;;;;;;5047759;28;20218;-77
2021/10/05 12:08:54;;;;;;;1.58;1.48;;;17.80;99.90;;;;;;5046951;28;20301;-76
2021/10/05 12:11:21;;;;;;;2.03;1.45;;;17.90;99.90;;;;;;5045996;28;20226;-76
2021/10/05 12:14:00;;;;;;;3.92;1.70;;;17.90;99.90;;;;;;5046372;28;20280;-75
2021/10/05 12:16:27;;;;;;;1.88;1.70;;;17.90;99.90;;;;;;5048186;28;20226;-75
2021/10/05 12:18:57;;;;;;;1.92;1.75;;;17.90;99.90;;;;;;5048877;28;20214;-76
2021/10/05 12:21:24;;;;;;;2.17;1.60;;;17.90;99.90;;;;;;5040533;28;20214;-75
2021/10/05 12:23:53;;;;;;;4.95;2.17;;;17.80;99.90;;;;;;5047440;28;20222;-77
2021/10/05 12:26:20;;;;;;;1.70;1.50;;;17.80;99.90;;;;;;5045330;28;20234;-76
2021/10/05 12:29:03;;;;;;;5.43;1.80;;;17.90;99.90;;;;;;5045560;28;20221;-77
2021/10/05 12:31:30;;;;;;;4.05;2.15;;;17.90;99.90;;;;;;5043409;28;20232;-78
2021/10/05 12:34:00;;;;;;;4.85;2.00;;;17.90;99.90;;;;;;5044616;28;20226;-79
2021/10/05 12:36:28;;;;;;;2.78;2.10;;;17.90;99.90;;;;;;5050159;28;20218;-77
2021/10/05 12:38:55;;;;;;;3.40;1.75;;;17.90;99.90;;;;;;5052844;28;20218;-77
2021/10/05 12:41:23;;;;;;;3.00;1.58;;;18.00;99.90;;;;;;5053035;28;20230;-77
2021/10/05 12:43:50;;;;;;;3.95;1.70;;;18.10;99.90;;;;;;5054428;28;20226;-78
2021/10/05 12:46:21;;;;;;;2.08;1.40;;;18.20;99.90;;;;;;5053410;28;20219;-78
2021/10/05 12:48:51;;;;;;;3.95;1.67;;;18.30;99.90;;;;;;5057126;28;20259;-77
2021/10/05 12:51:20;;;;;;;2.92;1.92;;;18.40;99.90;;;;;;5053462;28;20873;-76
2021/10/05 12:53:49;;;;;;;4.53;1.58;;;18.50;99.90;;;;;;5050258;28;20233;-76